sensor_id;sensor_type;location;lat;lon;timestamp;temperature;humidity
2002;DHT22;1003;48.002;7.788;2022-12-18T00:01:16;-5.50;99.90
2002;DHT22;1003;48.002;7.788;2022-12-18T00:03:45;-5.50;99.90
2002;DHT22;1003;48.002;7.788;2022-12-18T00:06:13;-5.40;99.90
2002;DHT22;1003;48.002;7.788;2022-12-18T00:08:40;-5.20;99.90
2002;DHT22;1003;48.002;7.788;2022-12-18T00:11:10;-5.10;99.90
2002;DHT22;1003;48.002;7.788;2022-12-18T00:13:39;-5.00;99.90
2002;DHT22;1003;48.002;7.788;2022-12-18T00:16:09;-5.20;99.90
2002;DHT22;1003;48.002;7.788;2022-12-18T00:18:38;-5.20;99.90
2002;DHT22;1003;48.002;7.788;2022-12-18T00:21:08;-5.30;99.90
2002;DHT22;1003;48.002;7.788;2022-12-18T00:23:37;-5.40;99.90
2002;DHT22;1003;48.002;7.788;2022-12-18T00:26:06;-5.40;99.90
2002;DHT22;1003;48.002;7.788;2022-12-18T00:28:35;-5.50;99.90
2002;DHT22;1003;48.002;7.788;2022-12-18T00:31:02;-5.60;99.90
2002;DHT22;1003;48.002;7.788;2022-12-18T00:33:31;-5.50;99.90
2002;DHT22;1003;48.002;7.788;2022-12-18T00:36:02;-5.30;99.90
2002;DHT22;1003;48.002;7.788;2022-12-18T00:38:29;-5.40;99.90
2002;DHT22;1003;48.002;7.788;2022-12-18T00:40:56;-5.50;99.90
2002;DHT22;1003;48.002;7.788;2022-12-18T00:43:24;-5.60;99.90
2002;DHT22;1003;48.002;7.788;2022-12-18T00:45:50;-5.70;99.90
2002;DHT22;1003;48.002;7.788;2022-12-18T00:48:17;-5.60;99.90
2002;DHT22;1003;48.002;7.788;2022-12-18T00:50:44;-5.50;99.90
2002;DHT22;1003;48.002;7.788;2022-12-18T00:53:13;-5.70;99.90
2002;DHT22;1003;48.002;7.788;2022-12-18T00:55:41;-5.60;99.90
2002;DHT22;1003;48.002;7.788;2022-12-18T00:58:09;-5.60;99.90
2002;DHT22;1003;48.002;7.788;2022-12-18T01:00:37;-5.60;99.90
2002;DHT22;1003;48.002;7.788;2022-12-18T01:03:05;-5.60;99.90
2002;DHT22;1003;48.002;7.788;2022-12-18T01:05:32;-5.70;99.90
2002;DHT22;1003;48.002;7.788;2022-12-18T01:08:00;-5.70;99.90
2002;DHT22;1003;48.002;7.788;2022-12-18T01:10:28;-5.50;99.90
2002;DHT22;1003;48.002;7.788;2022-12-18T01:12:55;-5.50;99.90
2002;DHT22;1003;48.002;7.788;2022-12-18T01:15:22;-5.50;99.90
2002;DHT22;1003;48.002;7.788;2022-12-18T01:17:51;-5.70;99.90
2002;DHT22;1003;48.002;7.788;2022-12-18T01:20:19;-5.70;99.90
2002;DHT22;1003;48.002;7.788;2022-12-18T01:22:46;-5.80;99.90
2002;DHT22;1003;48.002;7.788;2022-12-18T01:25:13;-6.00;99.90
2002;DHT22;1003;48.002;7.788;2022-12-18T01:27:41;-6.00;99.90
2002;DHT22;1003;48.002;7.788;2022-12-18T01:30:10;-6.10;99.90
2002;DHT22;1003;48.002;7.788;2022-12-18T01:32:37;-6.10;99.90
2002;DHT22;1003;48.002;7.788;2022-12-18T01:35:06;-6.00;99.90
2002;DHT22;1003;48.002;7.788;2022-12-18T01:37:34;-6.00;99.90
2002;DHT22;1003;48.002;7.788;2022-12-18T01:40:01;-6.00;99.90
2002;DHT22;1003;48.002;7.788;2022-12-18T01:42:28;-6.00;99.90
2002;DHT22;1003;48.002;7.788;2022-12-18T01:45:00;-6.00;99.90
2002;DHT22;1003;48.002;7.788;2022-12-18T01:47:33;-6.10;99.90
2002;DHT22;1003;48.002;7.788;2022-12-18T01:50:07;-5.90;99.90
2002;DHT22;1003;48.002;7.788;2022-12-18T01:52:37;-5.80;99.90
2002;DHT22;1003;48.002;7.788;2022-12-18T01:55:07;-5.80;99.90
2002;DHT22;1003;48.002;7.788;2022-12-18T01:57:38;-5.70;99.90
2002;DHT22;1003;48.002;7.788;2022-12-18T02:00:11;-5.80;99.90
2002;DHT22;1003;48.002;7.788;2022-12-18T02:02:42;-5.90;99.90
2002;DHT22;1003;48.002;7.788;2022-12-18T02:05:12;-5.80;99.90
2002;DHT22;1003;48.002;7.788;2022-12-18T02:07:48;-5.90;99.90
2002;DHT22;1003;48.002;7.788;2022-12-18T02:10:27;-5.80;99.90
2002;DHT22;1003;48.002;7.788;2022-12-18T02:13:02;-5.90;99.90
2002;DHT22;1003;48.002;7.788;2022-12-18T02:15:40;-5.90;99.90
2002;DHT22;1003;48.002;7.788;2022-12-18T02:18:19;-6.00;99.90
2002;DHT22;1003;48.002;7.788;2022-12-18T02:20:52;-6.00;99.90
2002;DHT22;1003;48.002;7.788;2022-12-18T02:23:45;-5.90;99.90
2002;DHT22;1003;48.002;7.788;2022-12-18T02:26:22;-5.90;99.90
2002;DHT22;1003;48.002;7.788;2022-12-18T02:28:58;-6.00;99.90
2002;DHT22;1003;48.002;7.788;2022-12-18T02:31:33;-6.10;99.90
2002;DHT22;1003;48.002;7.788;2022-12-18T02:34:07;-6.10;99.90
2002;DHT22;1003;48.002;7.788;2022-12-18T02:36:36;-6.20;99.90
2002;DHT22;1003;48.002;7.788;2022-12-18T02:39:09;-6.20;99.90
2002;DHT22;1003;48.002;7.788;2022-12-18T02:41:40;-6.10;99.90
2002;DHT22;1003;48.002;7.788;2022-12-18T02:44:09;-6.20;99.90
2002;DHT22;1003;48.002;7.788;2022-12-18T02:46:39;-6.30;99.90
2002;DHT22;1003;48.002;7.788;2022-12-18T02:49:17;-6.30;99.90
2002;DHT22;1003;48.002;7.788;2022-12-18T02:52:12;-6.20;99.90
2002;DHT22;1003;48.002;7.788;2022-12-18T02:54:55;-6.20;99.90
2002;DHT22;1003;48.002;7.788;2022-12-18T02:57:34;-6.20;99.90
2002;DHT22;1003;48.002;7.788;2022-12-18T03:00:11;-6.30;99.90
2002;DHT22;1003;48.002;7.788;2022-12-18T03:02:45;-6.30;99.90
2002;DHT22;1003;48.002;7.788;2022-12-18T03:05:21;-6.40;99.90
2002;DHT22;1003;48.002;7.788;2022-12-18T03:07:57;-6.40;99.90
2002;DHT22;1003;48.002;7.788;2022-12-18T03:10:31;-6.40;99.90
2002;DHT22;1003;48.002;7.788;2022-12-18T03:13:04;-6.30;99.90
2002;DHT22;1003;48.002;7.788;2022-12-18T03:15:38;-6.40;99.90
2002;DHT22;1003;48.002;7.788;2022-12-18T03:18:11;-6.30;99.90
2002;DHT22;1003;48.002;7.788;2022-12-18T03:20:43;-6.30;99.90
2002;DHT22;1003;48.002;7.788;2022-12-18T03:23:16;-6.20;99.90
2002;DHT22;1003;48.002;7.788;2022-12-18T03:25:48;-6.40;99.90
2002;DHT22;1003;48.002;7.788;2022-12-18T03:28:22;-6.40;99.90
2002;DHT22;1003;48.002;7.788;2022-12-18T03:30:53;-6.30;99.90
2002;DHT22;1003;48.002;7.788;2022-12-18T03:33:27;-6.40;99.90
2002;DHT22;1003;48.002;7.788;2022-12-18T03:35:59;-6.40;99.90
2002;DHT22;1003;48.002;7.788;2022-12-18T03:38:26;-6.40;99.90
2002;DHT22;1003;48.002;7.788;2022-12-18T03:40:59;-6.50;99.90
2002;DHT22;1003;48.002;7.788;2022-12-18T03:43:38;-6.60;99.90
2002;DHT22;1003;48.002;7.788;2022-12-18T03:46:15;-6.40;99.90
2002;DHT22;1003;48.002;7.788;2022-12-18T03:48:51;-6.40;99.90
2002;DHT22;1003;48.002;7.788;2022-12-18T03:51:26;-6.50;99.90
2002;DHT22;1003;48.002;7.788;2022-12-18T03:53:58;-6.60;99.90
2002;DHT22;1003;48.002;7.788;2022-12-18T03:56:29;-6.60;99.90
2002;DHT22;1003;48.002;7.788;2022-12-18T03:59:02;-6.50;99.90
2002;DHT22;1003;48.002;7.788;2022-12-18T04:01:33;-6.40;99.90
2002;DHT22;1003;48.002;7.788;2022-12-18T04:04:03;-6.50;99.90
2002;DHT22;1003;48.002;7.788;2022-12-18T04:06:32;-6.50;99.90
2002;DHT22;1003;48.002;7.788;2022-12-18T04:09:02;-6.50;99.90
2002;DHT22;1003;48.002;7.788;2022-12-18T04:11:30;-6.50;99.90
2002;DHT22;1003;48.002;7.788;2022-12-18T04:13:59;-6.50;99.90
2002;DHT22;1003;48.002;7.788;2022-12-18T04:16:27;-6.50;99.90
2002;DHT22;1003;48.002;7.788;2022-12-18T04:18:54;-6.40;99.90
2002;DHT22;1003;48.002;7.788;2022-12-18T04:21:21;-6.50;99.90
2002;DHT22;1003;48.002;7.788;2022-12-18T04:23:49;-6.60;99.90
2002;DHT22;1003;48.002;7.788;2022-12-18T04:26:16;-6.60;99.90
2002;DHT22;1003;48.002;7.788;2022-12-18T04:28:43;-6.60;99.90
2002;DHT22;1003;48.002;7.788;2022-12-18T04:31:13;-6.70;99.90
2002;DHT22;1003;48.002;7.788;2022-12-18T04:33:40;-6.70;99.90
2002;DHT22;1003;48.002;7.788;2022-12-18T04:36:07;-6.70;99.90
2002;DHT22;1003;48.002;7.788;2022-12-18T04:38:34;-6.70;99.90
2002;DHT22;1003;48.002;7.788;2022-12-18T04:41:01;-6.80;99.90
2002;DHT22;1003;48.002;7.788;2022-12-18T04:43:28;-6.70;99.90
2002;DHT22;1003;48.002;7.788;2022-12-18T04:46:01;-6.70;99.90
2002;DHT22;1003;48.002;7.788;2022-12-18T04:48:31;-6.70;99.90
2002;DHT22;1003;48.002;7.788;2022-12-18T04:50:58;-6.80;99.90
2002;DHT22;1003;48.002;7.788;2022-12-18T04:53:26;-6.80;99.90
2002;DHT22;1003;48.002;7.788;2022-12-18T04:56:02;-6.80;99.90
2002;DHT22;1003;48.002;7.788;2022-12-18T04:58:31;-6.70;99.90
2002;DHT22;1003;48.002;7.788;2022-12-18T05:00:58;-6.70;99.90
2002;DHT22;1003;48.002;7.788;2022-12-18T05:03:25;-6.70;99.90
2002;DHT22;1003;48.002;7.788;2022-12-18T05:05:54;-6.70;99.90
2002;DHT22;1003;48.002;7.788;2022-12-18T05:08:21;-6.80;99.90
2002;DHT22;1003;48.002;7.788;2022-12-18T05:10:48;-6.80;99.90
2002;DHT22;1003;48.002;7.788;2022-12-18T05:13:15;-6.80;99.90
2002;DHT22;1003;48.002;7.788;2022-12-18T05:15:42;-6.90;99.90
2002;DHT22;1003;48.002;7.788;2022-12-18T05:18:09;-6.90;99.90
2002;DHT22;1003;48.002;7.788;2022-12-18T05:20:36;-6.90;99.90
2002;DHT22;1003;48.002;7.788;2022-12-18T05:23:05;-6.90;99.90
2002;DHT22;1003;48.002;7.788;2022-12-18T05:25:32;-6.90;99.90
2002;DHT22;1003;48.002;7.788;2022-12-18T05:27:59;-6.90;99.90
2002;DHT22;1003;48.002;7.788;2022-12-18T05:30:26;-6.80;99.90
2002;DHT22;1003;48.002;7.788;2022-12-18T05:32:54;-6.80;99.90
2002;DHT22;1003;48.002;7.788;2022-12-18T05:35:21;-6.90;99.90
2002;DHT22;1003;48.002;7.788;2022-12-18T05:37:48;-7.00;99.90
2002;DHT22;1003;48.002;7.788;2022-12-18T05:40:16;-7.00;99.90
2002;DHT22;1003;48.002;7.788;2022-12-18T05:42:43;-7.10;99.90
2002;DHT22;1003;48.002;7.788;2022-12-18T05:45:10;-7.10;99.90
2002;DHT22;1003;48.002;7.788;2022-12-18T05:47:37;-7.10;99.90
2002;DHT22;1003;48.002;7.788;2022-12-18T05:50:06;-7.10;99.90
2002;DHT22;1003;48.002;7.788;2022-12-18T05:52:34;-7.00;99.90
2002;DHT22;1003;48.002;7.788;2022-12-18T05:55:01;-7.00;99.90
2002;DHT22;1003;48.002;7.788;2022-12-18T05:57:29;-7.00;99.90
2002;DHT22;1003;48.002;7.788;2022-12-18T05:59:56;-7.10;99.90
2002;DHT22;1003;48.002;7.788;2022-12-18T06:02:23;-7.10;99.90
2002;DHT22;1003;48.002;7.788;2022-12-18T06:04:50;-7.10;99.90
2002;DHT22;1003;48.002;7.788;2022-12-18T06:07:17;-7.30;99.90
2002;DHT22;1003;48.002;7.788;2022-12-18T06:09:44;-7.30;99.90
2002;DHT22;1003;48.002;7.788;2022-12-18T06:12:11;-7.30;99.90
2002;DHT22;1003;48.002;7.788;2022-12-18T06:14:39;-7.30;99.90
2002;DHT22;1003;48.002;7.788;2022-12-18T06:17:06;-7.30;99.90
2002;DHT22;1003;48.002;7.788;2022-12-18T06:19:33;-7.30;99.90
2002;DHT22;1003;48.002;7.788;2022-12-18T06:22:00;-7.30;99.90
2002;DHT22;1003;48.002;7.788;2022-12-18T06:24:28;-7.30;99.90
2002;DHT22;1003;48.002;7.788;2022-12-18T06:26:55;-7.30;99.90
2002;DHT22;1003;48.002;7.788;2022-12-18T06:29:22;-7.30;99.90
2002;DHT22;1003;48.002;7.788;2022-12-18T06:31:50;-7.30;99.90
2002;DHT22;1003;48.002;7.788;2022-12-18T06:34:17;-7.30;99.90
2002;DHT22;1003;48.002;7.788;2022-12-18T06:36:44;-7.40;99.90
2002;DHT22;1003;48.002;7.788;2022-12-18T06:39:11;-7.30;99.90
2002;DHT22;1003;48.002;7.788;2022-12-18T06:41:38;-7.40;99.90
2002;DHT22;1003;48.002;7.788;2022-12-18T06:44:05;-7.30;99.90
2002;DHT22;1003;48.002;7.788;2022-12-18T06:46:32;-7.30;99.90
2002;DHT22;1003;48.002;7.788;2022-12-18T06:49:01;-7.00;99.90
2002;DHT22;1003;48.002;7.788;2022-12-18T06:51:28;-7.10;99.90
2002;DHT22;1003;48.002;7.788;2022-12-18T06:53:55;-7.20;99.90
2002;DHT22;1003;48.002;7.788;2022-12-18T06:56:22;-7.30;99.90
2002;DHT22;1003;48.002;7.788;2022-12-18T06:58:49;-7.20;99.90
2002;DHT22;1003;48.002;7.788;2022-12-18T07:01:16;-7.30;99.90
2002;DHT22;1003;48.002;7.788;2022-12-18T07:03:43;-7.40;99.90
2002;DHT22;1003;48.002;7.788;2022-12-18T07:06:16;-7.50;99.90
2002;DHT22;1003;48.002;7.788;2022-12-18T07:08:47;-7.60;99.90
2002;DHT22;1003;48.002;7.788;2022-12-18T07:11:16;-7.70;99.90
2002;DHT22;1003;48.002;7.788;2022-12-18T07:13:45;-7.70;99.90
2002;DHT22;1003;48.002;7.788;2022-12-18T07:16:15;-7.70;99.90
2002;DHT22;1003;48.002;7.788;2022-12-18T07:18:44;-7.70;99.90
2002;DHT22;1003;48.002;7.788;2022-12-18T07:21:17;-7.80;99.90
2002;DHT22;1003;48.002;7.788;2022-12-18T07:23:45;-7.80;99.90
2002;DHT22;1003;48.002;7.788;2022-12-18T07:26:14;-7.90;99.90
2002;DHT22;1003;48.002;7.788;2022-12-18T07:28:42;-7.90;99.90
2002;DHT22;1003;48.002;7.788;2022-12-18T07:31:12;-7.90;99.90
2002;DHT22;1003;48.002;7.788;2022-12-18T07:33:41;-7.90;99.90
2002;DHT22;1003;48.002;7.788;2022-12-18T07:36:09;-7.90;99.90
2002;DHT22;1003;48.002;7.788;2022-12-18T07:38:39;-7.80;99.90
2002;DHT22;1003;48.002;7.788;2022-12-18T07:41:08;-7.90;99.90
2002;DHT22;1003;48.002;7.788;2022-12-18T07:43:36;-7.90;99.90
2002;DHT22;1003;48.002;7.788;2022-12-18T07:46:04;-7.90;99.90
2002;DHT22;1003;48.002;7.788;2022-12-18T07:48:32;-8.00;99.90
2002;DHT22;1003;48.002;7.788;2022-12-18T07:50:59;-7.90;99.90
2002;DHT22;1003;48.002;7.788;2022-12-18T07:53:27;-7.80;99.90
2002;DHT22;1003;48.002;7.788;2022-12-18T07:55:56;-7.80;99.90
2002;DHT22;1003;48.002;7.788;2022-12-18T07:58:24;-7.60;99.90
2002;DHT22;1003;48.002;7.788;2022-12-18T08:00:51;-7.50;99.90
2002;DHT22;1003;48.002;7.788;2022-12-18T08:03:19;-7.30;99.90
2002;DHT22;1003;48.002;7.788;2022-12-18T08:05:46;-7.20;99.90
2002;DHT22;1003;48.002;7.788;2022-12-18T08:08:16;-7.10;99.90
2002;DHT22;1003;48.002;7.788;2022-12-18T08:10:43;-7.00;99.90
2002;DHT22;1003;48.002;7.788;2022-12-18T08:13:11;-6.90;99.90
2002;DHT22;1003;48.002;7.788;2022-12-18T08:15:38;-6.80;99.90
2002;DHT22;1003;48.002;7.788;2022-12-18T08:18:05;-6.70;99.90
2002;DHT22;1003;48.002;7.788;2022-12-18T08:20:32;-6.70;99.90
2002;DHT22;1003;48.002;7.788;2022-12-18T08:22:59;-6.80;99.90
2002;DHT22;1003;48.002;7.788;2022-12-18T08:25:26;-6.80;99.90
2002;DHT22;1003;48.002;7.788;2022-12-18T08:27:53;-6.80;99.90
2002;DHT22;1003;48.002;7.788;2022-12-18T08:30:23;-6.80;99.90
2002;DHT22;1003;48.002;7.788;2022-12-18T08:32:51;-6.80;99.90
2002;DHT22;1003;48.002;7.788;2022-12-18T08:35:19;-6.80;99.90
2002;DHT22;1003;48.002;7.788;2022-12-18T08:37:47;-6.70;99.90
2002;DHT22;1003;48.002;7.788;2022-12-18T08:40:14;-6.60;99.90
2002;DHT22;1003;48.002;7.788;2022-12-18T08:42:41;-6.60;99.90
2002;DHT22;1003;48.002;7.788;2022-12-18T08:45:27;-6.60;99.90
2002;DHT22;1003;48.002;7.788;2022-12-18T08:47:54;-6.60;99.90
2002;DHT22;1003;48.002;7.788;2022-12-18T08:50:21;-6.50;99.90
2002;DHT22;1003;48.002;7.788;2022-12-18T08:52:48;-6.30;99.90
2002;DHT22;1003;48.002;7.788;2022-12-18T08:55:15;-6.40;99.90
2002;DHT22;1003;48.002;7.788;2022-12-18T08:57:43;-6.50;99.90
2002;DHT22;1003;48.002;7.788;2022-12-18T09:00:11;-6.70;99.90
2002;DHT22;1003;48.002;7.788;2022-12-18T09:02:41;-6.70;99.90
2002;DHT22;1003;48.002;7.788;2022-12-18T09:05:08;-6.70;99.90
2002;DHT22;1003;48.002;7.788;2022-12-18T09:07:35;-6.70;99.90
2002;DHT22;1003;48.002;7.788;2022-12-18T09:10:03;-6.70;99.90
2002;DHT22;1003;48.002;7.788;2022-12-18T09:12:31;-6.60;99.90
2002;DHT22;1003;48.002;7.788;2022-12-18T09:14:58;-6.60;99.90
2002;DHT22;1003;48.002;7.788;2022-12-18T09:17:25;-6.50;99.90
2002;DHT22;1003;48.002;7.788;2022-12-18T09:19:53;-6.50;99.90
2002;DHT22;1003;48.002;7.788;2022-12-18T09:22:20;-6.50;99.90
2002;DHT22;1003;48.002;7.788;2022-12-18T09:24:49;-6.50;99.90
2002;DHT22;1003;48.002;7.788;2022-12-18T09:27:16;-6.40;99.90
2002;DHT22;1003;48.002;7.788;2022-12-18T09:29:43;-6.40;99.90
2002;DHT22;1003;48.002;7.788;2022-12-18T09:32:10;-6.40;99.90
2002;DHT22;1003;48.002;7.788;2022-12-18T09:34:37;-6.40;99.90
2002;DHT22;1003;48.002;7.788;2022-12-18T09:37:05;-6.40;99.90
2002;DHT22;1003;48.002;7.788;2022-12-18T09:39:32;-6.40;99.90
2002;DHT22;1003;48.002;7.788;2022-12-18T09:42:03;-6.40;99.90
2002;DHT22;1003;48.002;7.788;2022-12-18T09:44:34;-6.30;99.90
2002;DHT22;1003;48.002;7.788;2022-12-18T09:47:12;-6.30;99.90
2002;DHT22;1003;48.002;7.788;2022-12-18T09:49:45;-6.30;99.90
2002;DHT22;1003;48.002;7.788;2022-12-18T09:52:19;-6.30;99.90
2002;DHT22;1003;48.002;7.788;2022-12-18T09:54:53;-6.20;99.90
2002;DHT22;1003;48.002;7.788;2022-12-18T09:57:25;-6.20;99.90
2002;DHT22;1003;48.002;7.788;2022-12-18T09:59:56;-6.00;99.90
2002;DHT22;1003;48.002;7.788;2022-12-18T10:02:30;-5.80;99.90
2002;DHT22;1003;48.002;7.788;2022-12-18T10:05:04;-5.80;99.90
2002;DHT22;1003;48.002;7.788;2022-12-18T10:07:53;-5.70;99.90
2002;DHT22;1003;48.002;7.788;2022-12-18T10:10:34;-5.60;99.90
2002;DHT22;1003;48.002;7.788;2022-12-18T10:13:15;-5.50;99.90
2002;DHT22;1003;48.002;7.788;2022-12-18T10:16:00;-5.50;99.90
2002;DHT22;1003;48.002;7.788;2022-12-18T10:21:44;-5.00;99.90
2002;DHT22;1003;48.002;7.788;2022-12-18T10:24:26;-5.00;99.90
2002;DHT22;1003;48.002;7.788;2022-12-18T10:27:12;-5.20;99.90
2002;DHT22;1003;48.002;7.788;2022-12-18T10:29:42;-5.10;99.90
2002;DHT22;1003;48.002;7.788;2022-12-18T10:32:15;-4.90;99.90
2002;DHT22;1003;48.002;7.788;2022-12-18T10:34:48;-4.80;99.90
2002;DHT22;1003;48.002;7.788;2022-12-18T10:37:18;-4.90;99.90
2002;DHT22;1003;48.002;7.788;2022-12-18T10:40:07;-4.70;99.90
2002;DHT22;1003;48.002;7.788;2022-12-18T10:42:37;-4.70;99.90
2002;DHT22;1003;48.002;7.788;2022-12-18T10:45:13;-4.70;99.90
2002;DHT22;1003;48.002;7.788;2022-12-18T10:47:43;-4.60;99.90
2002;DHT22;1003;48.002;7.788;2022-12-18T10:50:22;-4.60;99.90
2002;DHT22;1003;48.002;7.788;2022-12-18T10:52:58;-4.50;99.90
2002;DHT22;1003;48.002;7.788;2022-12-18T10:55:32;-4.40;99.90
2002;DHT22;1003;48.002;7.788;2022-12-18T10:58:16;-4.20;99.90
2002;DHT22;1003;48.002;7.788;2022-12-18T11:01:03;-4.20;99.90
2002;DHT22;1003;48.002;7.788;2022-12-18T11:03:36;-4.20;99.90
2002;DHT22;1003;48.002;7.788;2022-12-18T11:06:07;-4.10;99.90
2002;DHT22;1003;48.002;7.788;2022-12-18T11:08:36;-3.90;99.90
2002;DHT22;1003;48.002;7.788;2022-12-18T11:11:14;-3.80;99.90
2002;DHT22;1003;48.002;7.788;2022-12-18T11:13:56;-3.70;99.90
2002;DHT22;1003;48.002;7.788;2022-12-18T11:16:28;-3.80;99.90
2002;DHT22;1003;48.002;7.788;2022-12-18T11:19:19;-3.80;99.90
2002;DHT22;1003;48.002;7.788;2022-12-18T11:21:52;-3.70;99.90
2002;DHT22;1003;48.002;7.788;2022-12-18T11:24:23;-3.50;99.90
2002;DHT22;1003;48.002;7.788;2022-12-18T11:26:56;-3.20;99.90
2002;DHT22;1003;48.002;7.788;2022-12-18T11:29:31;-3.10;99.90
2002;DHT22;1003;48.002;7.788;2022-12-18T11:32:26;-3.00;99.90
2002;DHT22;1003;48.002;7.788;2022-12-18T11:35:03;-2.80;99.90
2002;DHT22;1003;48.002;7.788;2022-12-18T11:37:39;-2.80;99.90
2002;DHT22;1003;48.002;7.788;2022-12-18T11:40:14;-2.80;99.90
2002;DHT22;1003;48.002;7.788;2022-12-18T11:42:51;-2.80;99.90
2002;DHT22;1003;48.002;7.788;2022-12-18T11:45:27;-2.80;99.90
2002;DHT22;1003;48.002;7.788;2022-12-18T11:48:03;-2.90;99.90
2002;DHT22;1003;48.002;7.788;2022-12-18T11:50:44;-3.00;99.90
2002;DHT22;1003;48.002;7.788;2022-12-18T11:53:15;-2.80;99.90
2002;DHT22;1003;48.002;7.788;2022-12-18T11:55:58;-2.80;99.90
2002;DHT22;1003;48.002;7.788;2022-12-18T11:58:44;-2.70;99.90
2002;DHT22;1003;48.002;7.788;2022-12-18T12:01:33;-2.70;99.90
2002;DHT22;1003;48.002;7.788;2022-12-18T12:04:31;-2.90;99.90
2002;DHT22;1003;48.002;7.788;2022-12-18T12:07:20;-2.80;99.90
2002;DHT22;1003;48.002;7.788;2022-12-18T12:10:01;-2.70;99.90
2002;DHT22;1003;48.002;7.788;2022-12-18T12:12:43;-2.90;99.90
2002;DHT22;1003;48.002;7.788;2022-12-18T12:15:32;-2.90;99.90
2002;DHT22;1003;48.002;7.788;2022-12-18T12:18:13;-2.90;99.90
2002;DHT22;1003;48.002;7.788;2022-12-18T12:20:56;-2.90;99.90
2002;DHT22;1003;48.002;7.788;2022-12-18T12:23:37;-3.00;99.90
2002;DHT22;1003;48.002;7.788;2022-12-18T12:26:16;-2.90;99.90
2002;DHT22;1003;48.002;7.788;2022-12-18T12:29:17;-2.80;99.90
2002;DHT22;1003;48.002;7.788;2022-12-18T12:32:07;-2.90;99.90
2002;DHT22;1003;48.002;7.788;2022-12-18T12:34:53;-2.80;99.90
2002;DHT22;1003;48.002;7.788;2022-12-18T12:37:39;-2.90;99.90
2002;DHT22;1003;48.002;7.788;2022-12-18T12:40:18;-2.80;99.90
2002;DHT22;1003;48.002;7.788;2022-12-18T12:42:52;-2.80;99.90
2002;DHT22;1003;48.002;7.788;2022-12-18T12:45:45;-2.80;99.90
2002;DHT22;1003;48.002;7.788;2022-12-18T12:48:25;-2.80;99.90
2002;DHT22;1003;48.002;7.788;2022-12-18T12:51:00;-2.50;99.90
2002;DHT22;1003;48.002;7.788;2022-12-18T12:53:34;-2.50;99.90
2002;DHT22;1003;48.002;7.788;2022-12-18T12:56:04;-2.40;99.90
2002;DHT22;1003;48.002;7.788;2022-12-18T12:58:38;-2.30;99.90
2002;DHT22;1003;48.002;7.788;2022-12-18T13:01:20;-2.20;99.90
2002;DHT22;1003;48.002;7.788;2022-12-18T13:04:03;-2.40;99.90
2002;DHT22;1003;48.002;7.788;2022-12-18T13:06:44;-2.20;99.90
2002;DHT22;1003;48.002;7.788;2022-12-18T13:09:16;-2.30;99.90
2002;DHT22;1003;48.002;7.788;2022-12-18T13:11:45;-2.30;99.90
2002;DHT22;1003;48.002;7.788;2022-12-18T13:14:32;-2.10;99.90
2002;DHT22;1003;48.002;7.788;2022-12-18T13:20:07;-1.80;99.90
2002;DHT22;1003;48.002;7.788;2022-12-18T13:22:39;-1.70;99.90
2002;DHT22;1003;48.002;7.788;2022-12-18T13:25:35;-1.80;99.90
2002;DHT22;1003;48.002;7.788;2022-12-18T13:28:12;-1.80;99.90
2002;DHT22;1003;48.002;7.788;2022-12-18T13:30:51;-1.70;99.90
2002;DHT22;1003;48.002;7.788;2022-12-18T13:33:36;-1.70;99.90
2002;DHT22;1003;48.002;7.788;2022-12-18T13:36:27;-1.80;99.90
2002;DHT22;1003;48.002;7.788;2022-12-18T13:39:24;-1.90;99.90
2002;DHT22;1003;48.002;7.788;2022-12-18T13:45:39;-1.90;99.90
2002;DHT22;1003;48.002;7.788;2022-12-18T13:48:21;-1.80;99.90
2002;DHT22;1003;48.002;7.788;2022-12-18T13:50:53;-1.70;99.90
2002;DHT22;1003;48.002;7.788;2022-12-18T13:53:29;-1.70;99.90
2002;DHT22;1003;48.002;7.788;2022-12-18T13:56:02;-1.60;99.90
2002;DHT22;1003;48.002;7.788;2022-12-18T13:58:29;-1.60;99.90
2002;DHT22;1003;48.002;7.788;2022-12-18T14:00:56;-1.60;99.90
2002;DHT22;1003;48.002;7.788;2022-12-18T14:03:26;-1.70;99.90
2002;DHT22;1003;48.002;7.788;2022-12-18T14:06:06;-1.70;99.90
2002;DHT22;1003;48.002;7.788;2022-12-18T14:08:41;-1.70;99.90
2002;DHT22;1003;48.002;7.788;2022-12-18T14:11:18;-1.80;99.90
2002;DHT22;1003;48.002;7.788;2022-12-18T14:13:49;-1.80;99.90
2002;DHT22;1003;48.002;7.788;2022-12-18T14:16:17;-1.80;99.90
2002;DHT22;1003;48.002;7.788;2022-12-18T14:18:46;-1.80;99.90
2002;DHT22;1003;48.002;7.788;2022-12-18T14:21:22;-1.80;99.90
2002;DHT22;1003;48.002;7.788;2022-12-18T14:24:06;-1.80;99.90
2002;DHT22;1003;48.002;7.788;2022-12-18T14:26:39;-1.70;99.90
2002;DHT22;1003;48.002;7.788;2022-12-18T14:29:28;-1.70;99.90
2002;DHT22;1003;48.002;7.788;2022-12-18T14:32:10;-1.70;99.90
2002;DHT22;1003;48.002;7.788;2022-12-18T14:34:39;-1.80;99.90
2002;DHT22;1003;48.002;7.788;2022-12-18T14:37:09;-1.80;99.90
2002;DHT22;1003;48.002;7.788;2022-12-18T14:39:38;-2.00;99.90
2002;DHT22;1003;48.002;7.788;2022-12-18T14:42:05;-2.00;99.90
2002;DHT22;1003;48.002;7.788;2022-12-18T14:44:37;-2.00;99.90
2002;DHT22;1003;48.002;7.788;2022-12-18T14:47:04;-2.00;99.90
2002;DHT22;1003;48.002;7.788;2022-12-18T14:49:33;-2.10;99.90
2002;DHT22;1003;48.002;7.788;2022-12-18T14:52:04;-2.20;99.90
2002;DHT22;1003;48.002;7.788;2022-12-18T14:54:35;-2.30;99.90
2002;DHT22;1003;48.002;7.788;2022-12-18T14:57:21;-2.30;99.90
2002;DHT22;1003;48.002;7.788;2022-12-18T14:59:51;-2.40;99.90
2002;DHT22;1003;48.002;7.788;2022-12-18T15:02:20;-2.40;99.90
2002;DHT22;1003;48.002;7.788;2022-12-18T15:05:00;-2.40;99.90
2002;DHT22;1003;48.002;7.788;2022-12-18T15:07:40;-2.40;99.90
2002;DHT22;1003;48.002;7.788;2022-12-18T15:10:13;-2.40;99.90
2002;DHT22;1003;48.002;7.788;2022-12-18T15:12:43;-2.40;99.90
2002;DHT22;1003;48.002;7.788;2022-12-18T15:15:44;-2.40;99.90
2002;DHT22;1003;48.002;7.788;2022-12-18T15:18:14;-2.40;99.90
2002;DHT22;1003;48.002;7.788;2022-12-18T15:20:47;-2.50;99.90
2002;DHT22;1003;48.002;7.788;2022-12-18T15:23:18;-2.50;99.90
2002;DHT22;1003;48.002;7.788;2022-12-18T15:25:55;-2.50;99.90
2002;DHT22;1003;48.002;7.788;2022-12-18T15:28:25;-2.40;99.90
2002;DHT22;1003;48.002;7.788;2022-12-18T15:31:04;-2.50;99.90
2002;DHT22;1003;48.002;7.788;2022-12-18T15:33:35;-2.60;99.90
2002;DHT22;1003;48.002;7.788;2022-12-18T15:36:05;-2.60;99.90
2002;DHT22;1003;48.002;7.788;2022-12-18T15:38:36;-2.60;99.90
2002;DHT22;1003;48.002;7.788;2022-12-18T15:41:04;-2.70;99.90
2002;DHT22;1003;48.002;7.788;2022-12-18T15:43:33;-2.70;99.90
2002;DHT22;1003;48.002;7.788;2022-12-18T15:46:04;-2.70;99.90
2002;DHT22;1003;48.002;7.788;2022-12-18T15:48:34;-2.70;99.90
2002;DHT22;1003;48.002;7.788;2022-12-18T15:51:07;-2.70;99.90
2002;DHT22;1003;48.002;7.788;2022-12-18T15:53:39;-2.80;99.90
2002;DHT22;1003;48.002;7.788;2022-12-18T15:56:10;-2.80;99.90
2002;DHT22;1003;48.002;7.788;2022-12-18T15:58:55;-2.80;99.90
2002;DHT22;1003;48.002;7.788;2022-12-18T16:01:26;-2.90;99.90
2002;DHT22;1003;48.002;7.788;2022-12-18T16:03:54;-2.90;99.90
2002;DHT22;1003;48.002;7.788;2022-12-18T16:06:22;-2.80;99.90
2002;DHT22;1003;48.002;7.788;2022-12-18T16:08:49;-2.80;99.90
2002;DHT22;1003;48.002;7.788;2022-12-18T16:11:21;-2.90;99.90
2002;DHT22;1003;48.002;7.788;2022-12-18T16:14:09;-2.90;99.90
2002;DHT22;1003;48.002;7.788;2022-12-18T16:16:42;-2.90;99.90
2002;DHT22;1003;48.002;7.788;2022-12-18T16:19:09;-2.80;99.90
2002;DHT22;1003;48.002;7.788;2022-12-18T16:21:36;-2.80;99.90
2002;DHT22;1003;48.002;7.788;2022-12-18T16:24:03;-2.80;99.90
2002;DHT22;1003;48.002;7.788;2022-12-18T16:26:32;-2.80;99.90
2002;DHT22;1003;48.002;7.788;2022-12-18T16:28:59;-2.80;99.90
2002;DHT22;1003;48.002;7.788;2022-12-18T16:31:26;-2.80;99.90
2002;DHT22;1003;48.002;7.788;2022-12-18T16:34:15;-2.80;99.90
2002;DHT22;1003;48.002;7.788;2022-12-18T16:36:46;-2.90;99.90
2002;DHT22;1003;48.002;7.788;2022-12-18T16:39:14;-2.80;99.90
2002;DHT22;1003;48.002;7.788;2022-12-18T16:41:42;-2.90;99.90
2002;DHT22;1003;48.002;7.788;2022-12-18T16:44:09;-3.00;99.90